createdAt,value
2017-12-16T00:08:22.000Z,51.8
2017-12-16T00:18:22.000Z,52.3
2017-12-16T00:28:22.000Z,53.1
2017-12-16T00:38:22.000Z,53.2
2017-12-16T00:48:22.000Z,53.2
2017-12-16T00:58:22.000Z,53.3
2017-12-16T01:08:22.000Z,53.4
2017-12-16T01:18:22.000Z,53.4
2017-12-16T01:28:22.000Z,53.5
2017-12-16T01:38:22.000Z,52.6
2017-12-16T01:48:22.000Z,39
2017-12-16T01:58:22.000Z,37.2
2017-12-16T02:08:22.000Z,37
2017-12-16T02:18:22.000Z,37
2017-12-16T02:28:22.000Z,37.2
2017-12-16T02:38:22.000Z,37.2
2017-12-16T02:48:23.000Z,37.3
2017-12-16T02:58:24.000Z,37.3
2017-12-16T03:08:23.000Z,37.2
2017-12-16T03:18:23.000Z,37.6
2017-12-16T03:28:23.000Z,37.8
2017-12-16T03:38:23.000Z,37.9
2017-12-16T03:48:23.000Z,37.9
2017-12-16T03:58:23.000Z,38
2017-12-16T04:08:23.000Z,38.3
2017-12-16T04:18:23.000Z,38.5
2017-12-16T04:28:23.000Z,38.7
2017-12-16T04:38:23.000Z,38.6
2017-12-16T04:48:23.000Z,38.8
2017-12-16T04:58:23.000Z,38.7
2017-12-16T05:08:23.000Z,38.7
2017-12-16T05:18:23.000Z,38.8
2017-12-16T05:28:23.000Z,38.6
2017-12-16T05:38:23.000Z,38.4
2017-12-16T05:48:23.000Z,38.5
2017-12-16T05:58:23.000Z,38.9
2017-12-16T06:08:23.000Z,38.8
2017-12-16T06:18:23.000Z,39
2017-12-16T06:28:23.000Z,38.8
2017-12-16T06:38:23.000Z,38.9
2017-12-16T06:48:23.000Z,38.8
2017-12-16T06:58:23.000Z,38.9
2017-12-16T07:08:23.000Z,38.8
2017-12-16T07:18:23.000Z,38.9
2017-12-16T07:28:23.000Z,38.8
2017-12-16T07:38:23.000Z,38.8
2017-12-16T07:48:23.000Z,38.8
2017-12-16T07:58:23.000Z,38.7
2017-12-16T08:08:23.000Z,38.6
2017-12-16T08:18:23.000Z,38.6
2017-12-16T08:28:23.000Z,38.8
2017-12-16T08:38:23.000Z,38.8
2017-12-16T08:48:23.000Z,38.8
2017-12-16T08:58:23.000Z,39.3
2017-12-16T09:08:23.000Z,47.9
2017-12-16T09:18:23.000Z,50
2017-12-16T09:28:23.000Z,50.2
2017-12-16T09:38:23.000Z,49.6
2017-12-16T09:48:23.000Z,50.6
2017-12-16T09:58:24.000Z,50.3
2017-12-16T10:08:24.000Z,50.1
2017-12-16T10:18:24.000Z,50
2017-12-16T10:28:24.000Z,49.8
2017-12-16T10:38:24.000Z,35.5
2017-12-16T10:48:24.000Z,46
2017-12-16T10:58:24.000Z,47.2
2017-12-16T11:08:24.000Z,47.9
2017-12-16T11:18:24.000Z,48.1
2017-12-16T11:28:24.000Z,48.3
2017-12-16T11:38:24.000Z,48.4
2017-12-16T11:48:24.000Z,48.4
2017-12-16T11:58:24.000Z,48.6
2017-12-16T12:08:25.000Z,48.6
2017-12-16T12:18:24.000Z,48.8
2017-12-16T12:28:24.000Z,48.7
2017-12-16T12:38:24.000Z,48.8
2017-12-16T12:58:24.000Z,48.8
2017-12-16T13:08:24.000Z,48.8
2017-12-16T13:18:24.000Z,48.8
2017-12-16T13:28:24.000Z,48.8
2017-12-16T13:38:24.000Z,48.8
2017-12-16T13:48:24.000Z,48.8
2017-12-16T13:58:24.000Z,48.8
2017-12-16T14:08:24.000Z,48.7
2017-12-16T14:18:24.000Z,48.7
2017-12-16T14:28:24.000Z,48.6
2017-12-16T14:38:24.000Z,48.7
2017-12-16T14:48:25.000Z,48.7
2017-12-16T14:58:25.000Z,48.7
2017-12-16T15:08:24.000Z,48.6
2017-12-16T15:18:24.000Z,48.6
2017-12-16T15:28:24.000Z,48.5
2017-12-16T15:38:24.000Z,48.5
2017-12-16T15:48:24.000Z,48.5
2017-12-16T15:58:24.000Z,48.4
2017-12-16T16:08:24.000Z,48.4
2017-12-16T16:18:24.000Z,48.3
2017-12-16T16:28:24.000Z,48.3
2017-12-16T16:38:24.000Z,48.2
2017-12-16T16:48:24.000Z,48.2
2017-12-16T16:58:25.000Z,48.2
2017-12-16T17:08:25.000Z,48.1
2017-12-16T17:18:25.000Z,48
2017-12-16T17:28:25.000Z,48.1
2017-12-16T17:38:25.000Z,48.1
2017-12-16T17:48:25.000Z,48.1
2017-12-16T17:58:25.000Z,48
2017-12-16T18:08:25.000Z,48
2017-12-16T18:18:25.000Z,48
2017-12-16T18:28:25.000Z,47.9
2017-12-16T18:38:25.000Z,47.9
2017-12-16T18:48:25.000Z,47.8
2017-12-16T18:58:25.000Z,47.9
2017-12-16T19:08:25.000Z,47.8
2017-12-16T19:18:26.000Z,47.9
2017-12-16T19:28:25.000Z,47.8
2017-12-16T19:38:25.000Z,47.7
2017-12-16T19:48:25.000Z,47.8
2017-12-16T19:58:25.000Z,47.7
2017-12-16T20:08:26.000Z,47.7
2017-12-16T20:18:25.000Z,47.6
2017-12-16T20:28:26.000Z,47.6
2017-12-16T20:38:25.000Z,47.6
2017-12-16T20:48:25.000Z,47.6
2017-12-16T20:58:25.000Z,47.5
2017-12-16T21:08:25.000Z,47.5
2017-12-16T21:18:26.000Z,47.5
2017-12-16T21:28:26.000Z,47.4
2017-12-16T21:38:25.000Z,47.4
2017-12-16T21:48:25.000Z,47.4
2017-12-16T21:58:25.000Z,47.3
2017-12-16T22:08:25.000Z,47.3
2017-12-16T22:18:25.000Z,47.3
2017-12-16T22:28:25.000Z,47.3
2017-12-16T22:38:25.000Z,47.3
2017-12-16T22:48:25.000Z,47.3
2017-12-16T22:58:25.000Z,47.3
2017-12-16T23:08:25.000Z,46.7
2017-12-16T23:18:25.000Z,47.1
2017-12-16T23:28:25.000Z,47.1
2017-12-16T23:38:26.000Z,47.3
2017-12-16T23:48:26.000Z,47.4
2017-12-16T23:58:26.000Z,47.5
